^^
Station Historical Data
Daily Summary for January 3, 2018 Units:  English    Metric   Both
« Previous Day
Next Day »
Daily Weekly Monthly Yearly Custom
  High: Low: Average:
Temperature: TemperatureF °F 68.4 °F 81.1 °F
Dew Point: DewpointF °F 9.3 °F 25.6 °F
Humidity: Humidity% 4% 14%
Wind Speed: WindSpeedMPHmph 0.0mph 4.4mph
Wind Gust: WindSpeedGustMPHmph - -
Wind- - SSW
Pressure: PressureIn in 29.70 in -
Precipitation: 0.00 in    
Historical Graphs
 
 
Tabular Data for January 3, 2018
Time Temperature Dew Point Pressure Wind Wind Speed Wind Gust Humidity Rainfall Rate (Hourly) solar Conditions
TemperatureF °F DewpointF °F PressureIn in Calm     Humidity% HourlyPrecipIn in SolarRadiationWatts/m^2 W/m2 Conditions
00:20 77.7 °F 26.4 °F 29.83 in Calm     15% 0.00 in 227.0 W/m2
00:35 79.5 °F 26.1 °F 29.83 in Calm   3.0 mph 14% 0.00 in 283.0 W/m2
00:50 80.4 °F 26.8 °F 29.83 in Calm   1.0 mph 14% 0.00 in 338.0 W/m2
01:04 81.7 °F 26.1 °F 29.83 in SE 0.9 mph 5.0 mph 13% 0.00 in 373.0 W/m2
01:26 84.0 °F 25.9 °F 29.84 in Calm   3.0 mph 12% 0.00 in 462.0 W/m2
01:46 84.6 °F 26.4 °F 29.84 in Calm     12% 0.00 in 515.0 W/m2
02:02 85.5 °F 25.0 °F 29.84 in Calm     11% 0.00 in 570.0 W/m2
02:25 86.7 °F 23.7 °F 29.84 in SE 2.9 mph 4.0 mph 10% 0.00 in 650.0 W/m2
02:35 86.7 °F 23.7 °F 29.84 in Calm     10% 0.00 in 682.0 W/m2
02:48 87.3 °F 24.1 °F 29.84 in Calm   4.0 mph 10% 0.00 in 715.0 W/m2
07:57 99.0 °F 16.3 °F 29.74 in NNW 6.9 mph 13.0 mph 5% 0.00 in 884.0 W/m2
08:19 99.5 °F 11.7 °F 29.73 in Calm   1.0 mph 4% 0.00 in 846.0 W/m2
08:34 100.4 °F 12.2 °F 29.72 in Calm     4% 0.00 in 814.0 W/m2
08:43 99.9 °F 11.8 °F 29.72 in Calm   9.0 mph 4% 0.00 in 773.0 W/m2
09:03 99.1 °F 11.3 °F 29.72 in NNW 6.9 mph 11.0 mph 4% 0.00 in 733.0 W/m2
09:14 99.5 °F 11.7 °F 29.72 in Calm   8.0 mph 4% 0.00 in 703.0 W/m2
09:25 99.5 °F 11.7 °F 29.71 in Calm   1.0 mph 4% 0.00 in 673.0 W/m2
09:38 99.3 °F 11.5 °F 29.71 in WNW 10.1 mph 14.0 mph 4% 0.00 in 624.0 W/m2
09:55 100.0 °F 12.0 °F 29.70 in West 6.9 mph 9.0 mph 4% 0.00 in 552.0 W/m2
12:39 97.0 °F 9.9 °F 29.71 in SSW 6.9 mph 9.0 mph 4% 0.00 in 9.0 W/m2
12:50 96.3 °F 9.3 °F 29.71 in SSW 6.9 mph 8.0 mph 4% 0.00 in 5.0 W/m2
13:01 95.5 °F 14.0 °F 29.71 in SSW 6.9 mph 9.0 mph 5% 0.00 in 0.0 W/m2
13:28 93.6 °F 12.6 °F 29.72 in SSW 2.9 mph 4.0 mph 5% 0.00 in 0.0 W/m2
13:44 91.6 °F 11.1 °F 29.72 in Calm     5% 0.00 in 0.0 W/m2
14:00 89.4 °F 13.8 °F 29.73 in Calm     6% 0.00 in 0.0 W/m2
14:29 87.1 °F 12.0 °F 29.73 in Calm     6% 0.00 in 0.0 W/m2
15:37 87.3 °F 28.4 °F 29.77 in SSE 8.1 mph 12.0 mph 12% 0.00 in 0.0 W/m2
16:06 86.2 °F 29.7 °F 29.78 in SSE 14.1 mph 14.1 mph 13% 0.00 in 0.0 W/m2
16:11 85.6 °F 30.9 °F 29.79 in SSE 8.1 mph 11.0 mph 14% 0.00 in 0.0 W/m2
16:16 85.3 °F 30.7 °F 29.79 in South 6.9 mph 10.0 mph 14% 0.00 in 0.0 W/m2
16:21 84.9 °F 30.4 °F 29.79 in South 4.9 mph 9.0 mph 14% 0.00 in 0.0 W/m2
16:26 84.6 °F 30.2 °F 29.79 in South 8.1 mph 9.0 mph 14% 0.00 in 0.0 W/m2
16:36 84.7 °F 30.2 °F 29.79 in WSW 11.0 mph 15.0 mph 14% 0.00 in 0.0 W/m2
16:41 84.9 °F 30.4 °F 29.79 in WSW 8.9 mph 15.0 mph 14% 0.00 in 0.0 W/m2
16:47 84.9 °F 30.4 °F 29.79 in WSW 10.1 mph 12.0 mph 14% 0.00 in 0.0 W/m2
16:57 84.7 °F 30.2 °F 29.79 in WSW 6.0 mph 15.0 mph 14% 0.00 in 0.0 W/m2
17:11 83.7 °F 31.1 °F 29.79 in WSW 6.9 mph 11.0 mph 15% 0.00 in 0.0 W/m2
17:16 83.5 °F 30.9 °F 29.79 in WSW 10.1 mph 11.0 mph 15% 0.00 in 0.0 W/m2
17:21 83.5 °F 30.9 °F 29.79 in SW 8.9 mph 12.0 mph 15% 0.00 in 0.0 W/m2
17:36 83.1 °F 30.7 °F 29.78 in SW 11.0 mph 15.0 mph 15% 0.00 in 0.0 W/m2
17:41 83.1 °F 30.7 °F 29.79 in SW 10.1 mph 13.0 mph 15% 0.00 in 0.0 W/m2
17:46 83.1 °F 30.7 °F 29.79 in SSW 15.0 mph 15.0 mph 15% 0.00 in 0.0 W/m2
17:56 82.8 °F 30.4 °F 29.78 in SSW 11.0 mph 14.0 mph 15% 0.00 in 0.0 W/m2
18:06 82.8 °F 30.4 °F 29.78 in SSW 10.1 mph 14.0 mph 15% 0.00 in 0.0 W/m2
18:11 82.2 °F 30.0 °F 29.78 in SSW 10.1 mph 11.0 mph 15% 0.00 in 0.0 W/m2
18:16 81.9 °F 29.7 °F 29.78 in SSW 12.1 mph 14.0 mph 15% 0.00 in 0.0 W/m2
18:21 81.7 °F 29.5 °F 29.78 in SSW 8.1 mph 11.0 mph 15% 0.00 in 0.0 W/m2
18:31 81.3 °F 30.9 °F 29.78 in SSW 8.1 mph 13.0 mph 16% 0.00 in 0.0 W/m2
18:36 81.3 °F 30.9 °F 29.78 in SSW 8.9 mph 12.0 mph 16% 0.00 in 0.0 W/m2
18:41 81.1 °F 29.1 °F 29.78 in SSW 8.9 mph 11.0 mph 15% 0.00 in 0.0 W/m2
18:46 80.8 °F 28.8 °F 29.78 in SSW 8.1 mph 9.0 mph 15% 0.00 in 0.0 W/m2
19:02 80.4 °F 30.2 °F 29.78 in SSW 6.9 mph 9.0 mph 16% 0.00 in 0.0 W/m2
19:27 77.7 °F 29.5 °F 29.77 in SSW 4.0 mph 5.0 mph 17% 0.00 in 0.0 W/m2
19:37 77.5 °F 29.3 °F 29.77 in SSW 2.9 mph 5.0 mph 17% 0.00 in 0.0 W/m2
19:42 77.7 °F 29.5 °F 29.77 in SSW 4.9 mph 6.0 mph 17% 0.00 in 0.0 W/m2
19:52 77.7 °F 29.5 °F 29.76 in SSW 6.9 mph 8.0 mph 17% 0.00 in 0.0 W/m2
19:57 77.7 °F 29.5 °F 29.76 in SSW 6.9 mph 8.0 mph 17% 0.00 in 0.0 W/m2
20:07 77.4 °F 29.1 °F 29.76 in SSW 8.1 mph 8.1 mph 17% 0.00 in 0.0 W/m2
20:18 76.6 °F 30.0 °F 29.76 in SSW 6.0 mph 8.0 mph 18% 0.00 in 0.0 W/m2
20:28 76.6 °F 30.0 °F 29.76 in SSW 6.9 mph 8.0 mph 18% 0.00 in 0.0 W/m2
20:43 76.8 °F 30.0 °F 29.76 in Calm     18% 0.00 in 0.0 W/m2
20:53 76.6 °F 30.0 °F 29.76 in SSW 6.0 mph 7.0 mph 18% 0.00 in 0.0 W/m2
20:58 76.3 °F 29.7 °F 29.76 in SSW 4.9 mph 7.0 mph 18% 0.00 in 0.0 W/m2
21:03 75.9 °F 29.3 °F 29.76 in SSW 4.0 mph 6.0 mph 18% 0.00 in 0.0 W/m2
21:08 75.4 °F 28.9 °F 29.76 in SSW 6.0 mph 6.0 mph 18% 0.00 in 0.0 W/m2
21:14 75.2 °F 30.0 °F 29.76 in SSW 6.0 mph 6.0 mph 19% 0.00 in 0.0 W/m2
21:19 75.0 °F 30.0 °F 29.76 in SSW 4.0 mph 5.0 mph 19% 0.00 in 0.0 W/m2
21:29 73.9 °F 29.1 °F 29.76 in SSW 0.9 mph 3.0 mph 19% 0.00 in 0.0 W/m2
21:34 73.4 °F 28.6 °F 29.76 in Calm     19% 0.00 in 0.0 W/m2
21:39 72.9 °F 29.5 °F 29.76 in Calm     20% 0.00 in 0.0 W/m2
21:44 72.5 °F 29.1 °F 29.76 in Calm     20% 0.00 in 0.0 W/m2
21:49 71.8 °F 28.6 °F 29.76 in Calm     20% 0.00 in 0.0 W/m2
21:54 71.4 °F 28.2 °F 29.76 in Calm     20% 0.00 in 0.0 W/m2
21:59 71.2 °F 28.0 °F 29.77 in Calm     20% 0.00 in 0.0 W/m2
22:04 70.9 °F 28.9 °F 29.77 in Calm     21% 0.00 in 0.0 W/m2
22:09 70.3 °F 29.7 °F 29.77 in Calm     22% 0.00 in 0.0 W/m2
22:19 70.0 °F 29.3 °F 29.77 in Calm     22% 0.00 in 0.0 W/m2
22:25 69.6 °F 30.2 °F 29.77 in Calm     23% 0.00 in 0.0 W/m2
22:46 68.4 °F 29.1 °F 29.78 in Calm     23% 0.00 in 0.0 W/m2
22:57 68.5 °F 28.2 °F 29.78 in Calm     22% 0.00 in 0.0 W/m2
23:01 68.5 °F 29.3 °F 29.78 in Calm     23% 0.00 in 5.0 W/m2
23:20 68.4 °F 30.2 °F 29.78 in Calm     24% 0.00 in 14.0 W/m2
23:37 70.3 °F 29.7 °F 29.79 in Calm     22% 0.00 in 56.0 W/m2
23:42 71.1 °F 30.2 °F 29.79 in Calm     22% 0.00 in 72.0 W/m2
23:58 71.8 °F 30.9 °F 29.79 in Calm     22% 0.00 in 109.0 W/m2
Canyon Roadhouse, Fishriver Canyon, Namibia
Compliments of Weather Underground - 2 mb